createdAt,value
2018-10-03T00:10:28.661Z,10.10
2018-10-03T00:55:07.281Z,10.00
2018-10-03T01:05:48.558Z,10.00
2018-10-03T01:11:15.255Z,10.00
2018-10-03T01:16:33.893Z,10.00
2018-10-03T01:43:51.153Z,9.70
2018-10-03T01:54:45.989Z,9.60
2018-10-03T03:40:49.426Z,9.60
2018-10-03T03:51:47.980Z,9.60
2018-10-03T04:25:22.003Z,9.60
2018-10-03T04:41:45.179Z,9.60
2018-10-03T04:58:06.436Z,9.60
2018-10-03T05:03:14.008Z,9.60
2018-10-03T05:08:24.945Z,9.70
2018-10-03T05:13:47.657Z,9.70
2018-10-03T05:24:31.276Z,9.70
2018-10-03T05:29:34.439Z,9.70
2018-10-03T05:34:38.732Z,9.70
2018-10-03T06:02:11.039Z,9.60
2018-10-03T06:07:17.971Z,9.60
2018-10-03T06:12:21.183Z,9.60
2018-10-03T06:17:49.576Z,9.60
2018-10-03T06:28:34.582Z,9.70
2018-10-03T07:14:09.976Z,10.00
2018-10-03T07:47:29.700Z,10.80
2018-10-03T08:20:43.418Z,11.10
2018-10-03T09:28:36.281Z,11.70
2018-10-03T09:39:23.398Z,12.00
2018-10-03T09:44:34.803Z,12.20
2018-10-03T09:49:46.301Z,12.40
2018-10-03T09:54:55.404Z,12.70
2018-10-03T10:00:12.966Z,13.00
2018-10-03T10:05:16.311Z,13.30
2018-10-03T10:10:19.659Z,13.30
2018-10-03T10:15:22.941Z,13.40
2018-10-03T10:20:26.075Z,13.50
2018-10-03T10:25:29.204Z,13.70
2018-10-03T10:30:33.544Z,13.70
2018-10-03T10:35:36.758Z,13.90
2018-10-03T10:40:40.077Z,13.90
2018-10-03T10:45:43.308Z,14.30
2018-10-03T10:50:46.589Z,14.70
2018-10-03T10:55:49.821Z,14.80
2018-10-03T11:00:53.075Z,15.00
2018-10-03T11:05:56.502Z,15.40
2018-10-03T11:11:00.192Z,15.60
2018-10-03T11:16:03.468Z,15.80
2018-10-03T11:21:06.681Z,15.80
2018-10-03T11:26:10.399Z,15.70
2018-10-03T11:31:13.955Z,15.60
2018-10-03T11:36:17.204Z,15.50
2018-10-03T11:41:20.397Z,15.30
2018-10-03T11:46:23.763Z,15.00
2018-10-03T11:51:27.235Z,14.80
2018-10-03T11:56:30.752Z,14.70
2018-10-03T12:01:34.216Z,14.60
2018-10-03T12:06:37.734Z,14.20
2018-10-03T12:11:41.232Z,14.00
2018-10-03T12:16:44.667Z,13.90
2018-10-03T12:21:48.084Z,13.80
2018-10-03T12:26:51.365Z,13.60
2018-10-03T12:31:54.661Z,13.40
2018-10-03T12:36:58.029Z,13.30
2018-10-03T12:42:01.338Z,13.20
2018-10-03T12:47:04.487Z,13.30
2018-10-03T12:52:12.473Z,13.40
2018-10-03T12:57:15.640Z,13.60
2018-10-03T13:02:18.773Z,13.90
2018-10-03T13:10:15.204Z,14.40
2018-10-03T13:15:18.358Z,15.00
2018-10-03T13:20:21.542Z,14.30
2018-10-03T13:25:24.646Z,13.90
2018-10-03T13:30:27.763Z,13.80
2018-10-03T13:35:30.860Z,13.80
2018-10-03T13:40:33.936Z,13.80
2018-10-03T13:45:36.998Z,14.00
2018-10-03T13:50:40.073Z,14.00
2018-10-03T13:55:43.155Z,13.90
2018-10-03T14:00:46.224Z,13.80
2018-10-03T14:05:49.288Z,13.80
2018-10-03T14:10:52.741Z,13.70
2018-10-03T14:15:55.841Z,13.70
2018-10-03T14:20:58.941Z,13.70
2018-10-03T14:26:02.045Z,13.60
2018-10-03T14:31:05.207Z,13.60
2018-10-03T14:36:08.340Z,13.60
2018-10-03T14:41:11.694Z,13.60
2018-10-03T14:46:14.765Z,13.60
2018-10-03T14:51:17.853Z,13.60
2018-10-03T14:56:20.974Z,13.50
2018-10-03T15:01:24.101Z,13.50
2018-10-03T15:06:27.214Z,13.60
2018-10-03T15:11:30.379Z,13.60
2018-10-03T15:16:33.571Z,13.70
2018-10-03T15:21:36.715Z,13.70
2018-10-03T15:26:39.859Z,13.70
2018-10-03T15:31:43.067Z,13.70
2018-10-03T15:36:46.224Z,13.70
2018-10-03T15:41:49.359Z,13.70
2018-10-03T15:46:52.458Z,13.60
2018-10-03T15:51:55.585Z,13.60
2018-10-03T15:56:58.732Z,13.50
2018-10-03T16:02:03.950Z,13.40
2018-10-03T16:07:07.076Z,13.30
2018-10-03T16:12:10.293Z,13.30
2018-10-03T16:17:13.402Z,13.20
2018-10-03T16:22:16.679Z,13.10
2018-10-03T16:27:19.990Z,13.10
2018-10-03T16:32:23.268Z,13.00
2018-10-03T16:37:26.510Z,12.90
2018-10-03T16:42:29.771Z,12.80
2018-10-03T16:47:33.601Z,12.70
2018-10-03T16:52:36.724Z,12.70
2018-10-03T16:57:40.155Z,12.60
2018-10-03T17:02:43.969Z,12.50
2018-10-03T17:07:47.251Z,12.40
2018-10-03T17:12:50.395Z,12.40
2018-10-03T17:17:53.616Z,12.30
2018-10-03T17:22:56.727Z,12.20
2018-10-03T17:27:59.809Z,12.10
2018-10-03T17:33:02.921Z,12.00
2018-10-03T17:38:06.667Z,11.90
2018-10-03T17:43:10.578Z,11.80
2018-10-03T17:48:14.135Z,11.80
2018-10-03T17:53:17.477Z,11.70
2018-10-03T17:58:20.770Z,11.70
2018-10-03T18:03:24.116Z,11.60
2018-10-03T18:08:27.721Z,11.50
2018-10-03T18:13:30.861Z,11.50
2018-10-03T18:18:33.984Z,11.40
2018-10-03T18:23:37.645Z,11.40
2018-10-03T18:28:41.071Z,11.40
2018-10-03T18:33:44.262Z,11.30
2018-10-03T18:38:47.929Z,11.30
2018-10-03T18:43:51.141Z,11.30
2018-10-03T18:48:54.788Z,11.20
2018-10-03T18:53:58.953Z,11.20
2018-10-03T18:59:02.403Z,11.20
2018-10-03T19:04:05.846Z,11.10
2018-10-03T19:09:09.927Z,11.10
2018-10-03T19:14:13.567Z,11.10
2018-10-03T19:19:17.084Z,11.00
2018-10-03T19:24:20.762Z,11.00
2018-10-03T19:29:24.144Z,11.00
2018-10-03T19:34:27.863Z,10.90
2018-10-03T19:39:31.352Z,10.90
2018-10-03T19:44:35.233Z,10.90
2018-10-03T19:49:38.951Z,10.90
2018-10-03T19:54:42.208Z,10.80
2018-10-03T19:59:46.072Z,10.80
2018-10-03T20:04:49.195Z,10.80
2018-10-03T20:09:52.673Z,10.70
2018-10-03T20:14:55.964Z,10.70
2018-10-03T20:19:59.367Z,10.70
2018-10-03T20:25:02.897Z,10.70
2018-10-03T20:30:06.468Z,10.70
2018-10-03T20:35:09.788Z,10.70
2018-10-03T20:40:13.068Z,10.70
2018-10-03T20:45:16.171Z,10.70
2018-10-03T20:50:19.277Z,10.70
2018-10-03T20:55:22.557Z,10.60
2018-10-03T21:00:25.706Z,10.60
2018-10-03T21:05:28.773Z,10.50
2018-10-03T21:10:31.864Z,10.50
2018-10-03T21:15:34.977Z,10.50
2018-10-03T21:20:38.142Z,10.40
2018-10-03T21:25:41.283Z,10.40
2018-10-03T21:30:44.412Z,10.40
2018-10-03T21:35:47.548Z,10.30
2018-10-03T21:40:50.674Z,10.30
2018-10-03T21:45:53.791Z,10.30
2018-10-03T21:50:56.890Z,10.20
2018-10-03T21:55:59.995Z,10.20
2018-10-03T22:01:03.101Z,10.20
2018-10-03T22:06:06.222Z,10.10
2018-10-03T22:11:09.318Z,10.10
2018-10-03T22:16:12.476Z,10.00
2018-10-03T22:21:15.581Z,10.00
2018-10-03T22:26:18.688Z,9.90
2018-10-03T22:31:21.804Z,9.90
2018-10-03T22:36:24.908Z,9.80
2018-10-03T22:41:28.009Z,9.80
2018-10-03T22:46:31.106Z,9.70
2018-10-03T22:51:34.277Z,9.70
2018-10-03T22:56:37.408Z,9.70
2018-10-03T23:01:40.490Z,9.60
2018-10-03T23:06:43.616Z,9.60
2018-10-03T23:11:46.715Z,9.50
2018-10-03T23:16:49.802Z,9.50
2018-10-03T23:21:52.922Z,9.40
2018-10-03T23:26:56.016Z,9.40
2018-10-03T23:31:59.124Z,9.30
2018-10-03T23:37:02.357Z,9.30
2018-10-03T23:42:05.503Z,9.20
2018-10-03T23:47:08.549Z,9.20
2018-10-03T23:52:11.654Z,9.20
2018-10-03T23:57:14.846Z,9.20
